Time;durP1;ratioP1;P1;durP2;ratioP2;P2;SDS_P1;SDS_P2;PMS_P1;PMS_P2;Temp;Humidity;BMP_temperature;BMP_pressure;BME280_temperature;BME280_humidity;BME280_pressure;Samples;Min_cycle;Max_cycle;Signal;HPM_P1;HPM_P2
2022/04/01 00:00:02;;;;;;;12.25;5.53;;;;;;;;;;4998082;28;20034;-68
2022/04/01 00:02:28;;;;;;;14.07;5.13;;;6.90;99.90;;;;;;4999110;28;20018;-67
2022/04/01 00:04:54;;;;;;;14.13;6.18;;;;;;;;;;4999366;28;20533;-67
2022/04/01 00:07:20;;;;;;;13.50;6.10;;;;;;;;;;4998648;28;20027;-67
2022/04/01 00:09:45;;;;;;;16.83;6.32;;;6.90;99.90;;;;;;5001213;28;20095;-68
2022/04/01 00:12:11;;;;;;;16.13;4.85;;;;;;;;;;4997624;28;20518;-67
2022/04/01 00:14:38;;;;;;;10.77;5.97;;;;;;;;;;4998610;28;20034;-67
2022/04/01 00:17:04;;;;;;;17.45;4.95;;;;;;;;;;4999078;28;20053;-67
2022/04/01 00:19:30;;;;;;;14.38;5.43;;;;;;;;;;4999193;28;20025;-66
2022/04/01 00:21:56;;;;;;;14.38;5.90;;;;;;;;;;4997763;28;20132;-67
2022/04/01 00:24:23;;;;;;;9.63;4.82;;;;;;;;;;5000019;28;20022;-66
2022/04/01 00:26:49;;;;;;;9.52;4.32;;;7.50;98.40;;;;;;4996675;28;20033;-68
2022/04/01 00:29:15;;;;;;;12.82;3.92;;;;;;;;;;4998829;28;20050;-67
2022/04/01 00:31:45;;;;;;;10.02;3.55;;;;;;;;;;4999548;28;20033;-67
2022/04/01 00:34:17;;;;;;;3.83;2.33;;;;;;;;;;4998311;28;20038;-68
2022/04/01 00:36:50;;;;;;;5.25;1.52;;;;;;;;;;5000357;28;20022;-68
2022/04/01 00:39:17;;;;;;;3.05;1.85;;;;;;;;;;4999290;28;20037;-68
2022/04/01 00:41:47;;;;;;;4.07;2.23;;;;;;;;;;4998902;28;20030;-68
2022/04/01 00:44:16;;;;;;;4.03;1.65;;;;;;;;;;4997794;28;20113;-68
2022/04/01 00:46:43;;;;;;;3.88;1.73;;;;;;;;;;4997928;28;20042;-66
2022/04/01 00:49:09;;;;;;;1.42;1.33;;;6.80;96.80;;;;;;4997574;28;20546;-67
2022/04/01 00:51:37;;;;;;;4.90;1.70;;;;;;;;;;5000334;28;20053;-66
2022/04/01 00:54:03;;;;;;;3.03;1.88;;;;;;;;;;4996048;28;20049;-67
2022/04/01 00:56:31;;;;;;;1.05;0.75;;;;;;;;;;4998001;28;20038;-68
2022/04/01 00:58:58;;;;;;;2.08;0.70;;;5.90;97.40;;;;;;4996863;28;20038;-68
2022/04/01 01:01:24;;;;;;;0.60;0.60;;;;;;;;;;4998418;28;20577;-67
2022/04/01 01:03:50;;;;;;;0.95;0.80;;;;;;;;;;4998427;28;20273;-67
2022/04/01 01:06:19;;;;;;;1.88;1.05;;;;;;;;;;4998732;28;20076;-65
2022/04/01 01:08:45;;;;;;;1.65;0.88;;;5.90;99.90;;;;;;4998113;28;20030;-67
2022/04/01 01:11:11;;;;;;;0.70;0.70;;;;;;;;;;4997868;28;20038;-67
2022/04/01 01:13:39;;;;;;;1.42;0.88;;;;;;;;;;4997251;28;20026;-67
2022/04/01 01:16:07;;;;;;;1.17;0.77;;;;;;;;;;4997038;28;20034;-67
2022/04/01 01:18:33;;;;;;;;;;;;;;;;;;5000002;28;20036;-68
2022/04/01 01:20:59;;;;;;;0.68;0.68;;;;;;;;;;4997388;28;20357;-67
2022/04/01 01:23:32;;;;;;;0.88;0.52;;;;;;;;;;4998126;28;20042;-67
2022/04/01 01:25:58;;;;;;;0.47;0.47;;;;;;;;;;4996849;28;20049;-67
2022/04/01 01:28:24;;;;;;;0.75;0.60;;;;;;;;;;4996424;28;20511;-67
2022/04/01 01:30:50;;;;;;;0.73;0.73;;;;;;;;;;4999711;28;20026;-67
2022/04/01 01:33:20;;;;;;;0.70;0.50;;;;;;;;;;4997782;28;20077;-69
2022/04/01 01:35:46;;;;;;;0.85;0.60;;;;;;;;;;4996618;28;20038;-67
2022/04/01 01:38:12;;;;;;;0.68;0.47;;;;;;;;;;4999276;28;20556;-67
2022/04/01 01:40:38;;;;;;;0.40;0.40;;;;;;;;;;4997374;28;20111;-67
2022/04/01 01:43:04;;;;;;;0.65;0.65;;;4.90;99.90;;;;;;4997343;28;20104;-66
2022/04/01 01:45:30;;;;;;;0.65;0.40;;;;;;;;;;4998016;28;20498;-67
2022/04/01 01:47:56;;;;;;;0.43;0.40;;;;;;;;;;4994870;28;20033;-68
2022/04/01 01:55:51;;;;;;;0.60;0.60;;;;;;;;;;4997591;28;20096;-67
2022/04/01 01:58:18;;;;;;;0.63;0.60;;;;;;;;;;4996399;28;20030;-68
2022/04/01 02:00:45;;;;;;;0.63;0.60;;;;;;;;;;4998929;28;20038;-68
2022/04/01 02:03:11;;;;;;;0.30;0.30;;;;;;;;;;4996458;28;20041;-67
2022/04/01 02:05:37;;;;;;;0.35;0.35;;;;;;;;;;4996844;28;20063;-68
2022/04/01 02:08:05;;;;;;;0.90;0.75;;;4.80;96.90;;;;;;4996255;28;20365;-68
2022/04/01 02:10:31;;;;;;;;;;;;;;;;;;4997863;28;20044;-68
2022/04/01 02:12:58;;;;;;;0.40;0.40;;;;;;;;;;4997437;28;19909;-68
2022/04/01 02:15:24;;;;;;;0.47;0.47;;;4.70;97.70;;;;;;4997599;28;20014;-68
2022/04/01 02:17:50;;;;;;;0.88;0.85;;;4.90;98.70;;;;;;4999216;28;20075;-68
2022/04/01 02:20:16;;;;;;;0.73;0.73;;;;;;;;;;4996455;28;20394;-66
2022/04/01 02:22:43;;;;;;;0.50;0.50;;;4.70;99.90;;;;;;4996926;28;20134;-67
2022/04/01 02:25:11;;;;;;;0.47;0.47;;;;;;;;;;4994832;28;20657;-67
2022/04/01 02:27:37;;;;;;;0.60;0.60;;;;;;;;;;4997832;28;20026;-67
2022/04/01 02:30:10;;;;;;;1.13;1.05;;;;;;;;;;4993553;28;20109;-69
2022/04/01 02:32:37;;;;;;;0.65;0.65;;;;;;;;;;4996299;28;20029;-67
2022/04/01 02:35:04;;;;;;;0.63;0.60;;;7.50;97.30;;;;;;4996359;28;20162;-67
2022/04/01 02:37:30;;;;;;;0.68;0.52;;;;;;;;;;4997026;28;20037;-66
2022/04/01 02:39:56;;;;;;;0.60;0.60;;;;;;;;;;4996624;28;20529;-68
2022/04/01 02:42:22;;;;;;;1.73;0.88;;;;;;;;;;4997348;28;20030;-67
2022/04/01 02:44:48;;;;;;;1.45;0.88;;;;;;;;;;4981751;28;20134;-67
2022/04/01 02:47:14;;;;;;;1.98;1.08;;;;;;;;;;4996381;28;20464;-65
2022/04/01 02:49:40;;;;;;;0.82;0.75;;;;;;;;;;4995955;28;20042;-67
2022/04/01 02:52:06;;;;;;;0.95;0.75;;;;;;;;;;4994237;28;20486;-66
2022/04/01 02:54:33;;;;;;;0.80;0.80;;;4.40;99.90;;;;;;4997215;28;20058;-67
2022/04/01 02:56:59;;;;;;;1.35;0.90;;;;;;;;;;4997065;28;20040;-68
2022/04/01 02:59:26;;;;;;;1.25;1.00;;;;;;;;;;4995636;28;20038;-68
2022/04/01 03:01:52;;;;;;;0.60;0.60;;;;;;;;;;4995343;28;20037;-67
2022/04/01 03:04:18;;;;;;;0.65;0.60;;;;;;;;;;4995055;28;20029;-67
2022/04/01 03:06:44;;;;;;;0.40;0.40;;;;;;;;;;4997565;28;20065;-68
2022/04/01 03:09:11;;;;;;;0.98;0.65;;;4.40;97.10;;;;;;4995420;28;20050;-68
2022/04/01 03:11:37;;;;;;;0.52;0.52;;;;;;;;;;4996094;28;20057;-68
2022/04/01 03:14:07;;;;;;;1.77;0.80;;;;;;;;;;4995458;28;20065;-67
2022/04/01 03:16:33;;;;;;;0.40;0.40;;;;;;;;;;4996229;28;20029;-68
2022/04/01 03:18:59;;;;;;;0.82;0.82;;;;;;;;;;4994750;28;20041;-67
2022/04/01 03:21:25;;;;;;;1.00;0.90;;;;;;;;;;4996635;28;20073;-67
2022/04/01 03:23:52;;;;;;;0.70;0.70;;;3.80;97.70;;;;;;4995393;28;20110;-67
2022/04/01 03:26:18;;;;;;;0.50;0.50;;;;;;;;;;4996027;28;20037;-66
2022/04/01 03:28:46;;;;;;;0.57;0.43;;;;;;;;;;4978458;28;20400;-66
2022/04/01 03:31:12;;;;;;;0.85;0.85;;;;;;;;;;4994287;28;25689;-68
2022/04/01 03:33:38;;;;;;;0.40;0.40;;;;;;;;;;4997583;28;20030;-67
2022/04/01 03:36:04;;;;;;;0.40;0.40;;;;;;;;;;4996182;28;20081;-65
2022/04/01 03:38:31;;;;;;;1.10;1.00;;;;;;;;;;4997416;28;20451;-67
2022/04/01 03:40:57;;;;;;;0.95;0.75;;;;;;;;;;4996287;28;20109;-66
2022/04/01 03:43:24;;;;;;;0.40;0.40;;;;;;;;;;4995865;28;20497;-68
2022/04/01 03:45:52;;;;;;;0.95;0.95;;;;;;;;;;4998302;28;20391;-66
2022/04/01 03:48:18;;;;;;;1.27;1.20;;;;;;;;;;4995329;28;20038;-67
2022/04/01 03:50:49;;;;;;;1.42;1.30;;;3.60;98.20;;;;;;4996100;28;20026;-67
2022/04/01 03:53:16;;;;;;;0.85;0.80;;;;;;;;;;4995164;28;20038;-67
2022/04/01 03:55:44;;;;;;;0.90;0.60;;;;;;;;;;4995805;28;20482;-67
2022/04/01 03:58:12;;;;;;;;;;;3.70;98.20;;;;;;5000352;28;20033;-67
2022/04/01 04:00:40;;;;;;;0.82;0.82;;;;;;;;;;5000882;28;19913;-67
2022/04/01 04:03:09;;;;;;;;;;;;;;;;;;4997874;28;20032;-66
2022/04/01 04:05:36;;;;;;;1.65;1.30;;;4.20;99.90;;;;;;4998571;28;19925;-67
2022/04/01 04:08:03;;;;;;;1.40;1.13;;;;;;;;;;4998703;28;20495;-67
2022/04/01 04:10:30;;;;;;;1.33;1.23;;;3.60;97.70;;;;;;4999240;28;20049;-68
2022/04/01 04:12:57;;;;;;;1.42;0.77;;;;;;;;;;4999180;28;20589;-68
2022/04/01 04:15:25;;;;;;;3.05;1.45;;;;;;;;;;5000233;28;20061;-67
2022/04/01 04:17:52;;;;;;;1.40;1.10;;;;;;;;;;4998530;28;20022;-68
2022/04/01 04:20:18;;;;;;;;;;;;;;;;;;5001414;28;20026;-67
2022/04/01 04:22:57;;;;;;;1.23;1.13;;;;;;;;;;4996860;28;19965;-67
2022/04/01 04:25:28;;;;;;;2.42;1.38;;;3.50;98.00;;;;;;4998322;28;20022;-67
2022/04/01 04:27:58;;;;;;;2.42;1.08;;;;;;;;;;4999075;28;20041;-66
2022/04/01 04:30:53;;;;;;;1.45;1.02;;;;;;;;;;4999708;28;20033;-67
2022/04/01 04:33:21;;;;;;;1.17;0.77;;;;;;;;;;4990719;28;20050;-67
2022/04/01 04:35:49;;;;;;;2.45;1.60;;;;;;;;;;4996170;28;20395;-67
2022/04/01 04:38:16;;;;;;;;;;;;;;;;;;4999126;28;20076;-68
2022/04/01 04:40:42;;;;;;;0.82;0.80;;;;;;;;;;4998165;28;19953;-66
2022/04/01 04:43:08;;;;;;;1.17;1.17;;;3.50;99.90;;;;;;4998727;28;20494;-66
2022/04/01 04:45:35;;;;;;;1.88;1.23;;;3.70;98.20;;;;;;4999728;28;20019;-66
2022/04/01 04:48:03;;;;;;;3.17;1.33;;;3.90;97.90;;;;;;4996987;28;20035;-66
2022/04/01 04:50:29;;;;;;;5.65;1.27;;;;;;;;;;4998319;28;20134;-69
2022/04/01 04:52:56;;;;;;;1.15;1.05;;;;;;;;;;4998437;28;20041;-66
2022/04/01 04:55:23;;;;;;;0.73;0.73;;;;;;;;;;4995191;28;20037;-68
2022/04/01 04:57:51;;;;;;;1.40;1.17;;;3.50;98.10;;;;;;4999717;28;20031;-68
2022/04/01 05:00:21;;;;;;;1.50;1.10;;;;;;;;;;4998037;28;20030;-68
2022/04/01 05:03:07;;;;;;;0.75;0.75;;;;;;;;;;4997039;28;20381;-67
2022/04/01 05:05:43;;;;;;;0.70;0.70;;;;;;;;;;4986402;28;20034;-67
2022/04/01 05:08:10;;;;;;;2.13;1.95;;;;;;;;;;4994672;28;20367;-68
2022/04/01 05:10:47;;;;;;;1.08;0.95;;;3.30;97.90;;;;;;4997142;28;20046;-67
2022/04/01 05:13:29;;;;;;;0.70;0.70;;;;;;;;;;4995731;28;20065;-66
2022/04/01 05:15:59;;;;;;;1.25;1.08;;;;;;;;;;4997306;28;20089;-67
2022/04/01 05:18:40;;;;;;;1.55;1.40;;;;;;;;;;4993683;28;20023;-67
2022/04/01 05:21:12;;;;;;;1.13;0.90;;;;;;;;;;4995810;28;20030;-67
2022/04/01 05:23:47;;;;;;;1.20;1.10;;;;;;;;;;4992312;28;20022;-67
2022/04/01 05:26:14;;;;;;;3.40;1.63;;;;;;;;;;4992729;28;20029;-67
2022/04/01 05:29:00;;;;;;;0.93;0.75;;;;;;;;;;4975408;28;20038;-66
2022/04/01 05:31:26;;;;;;;3.53;0.93;;;;;;;;;;4991025;28;20042;-68
2022/04/01 05:33:53;;;;;;;1.20;1.10;;;;;;;;;;4993174;28;20092;-67
2022/04/01 05:36:22;;;;;;;1.20;1.05;;;;;;;;;;4994023;28;20121;-68
2022/04/01 05:38:48;;;;;;;1.10;0.82;;;;;;;;;;4991646;28;20068;-66
2022/04/01 05:41:17;;;;;;;2.25;1.27;;;;;;;;;;4993835;28;20060;-71
2022/04/01 05:43:46;;;;;;;1.80;1.63;;;;;;;;;;4994324;28;20042;-69
2022/04/01 05:46:12;;;;;;;2.00;1.55;;;;;;;;;;4991788;28;20057;-69
2022/04/01 05:48:39;;;;;;;1.55;1.45;;;;;;;;;;4991064;28;20533;-67
2022/04/01 05:51:06;;;;;;;2.80;2.05;;;;;;;;;;4994426;28;20034;-67
2022/04/01 05:53:33;;;;;;;2.05;1.45;;;;;;;;;;4992069;28;20052;-67
2022/04/01 05:56:00;;;;;;;3.28;1.88;;;;;;;;;;4991830;28;20037;-67
2022/04/01 05:58:26;;;;;;;2.08;0.98;;;;;;;;;;4995806;28;20087;-65
2022/04/01 06:00:58;;;;;;;4.03;2.22;;;;;;;;;;4997971;28;20041;-67
2022/04/01 06:03:33;;;;;;;3.50;2.50;;;;;;;;;;4996331;28;20133;-66
2022/04/01 06:05:59;;;;;;;2.45;2.25;;;;;;;;;;4995386;28;20026;-67
2022/04/01 06:08:37;;;;;;;1.00;1.00;;;;;;;;;;4995065;28;20128;-67
2022/04/01 06:11:09;;;;;;;2.03;1.67;;;;;;;;;;4995632;28;20026;-67
2022/04/01 06:13:38;;;;;;;2.45;1.83;;;;;;;;;;4995000;28;20026;-67
2022/04/01 06:16:20;;;;;;;3.35;1.40;;;;;;;;;;4994362;28;20088;-66
2022/04/01 06:18:49;;;;;;;2.33;1.58;;;;;;;;;;4995662;28;20042;-66
2022/04/01 06:21:16;;;;;;;2.75;2.50;;;;;;;;;;4991962;28;20033;-67
2022/04/01 06:24:10;;;;;;;1.77;1.17;;;2.10;96.30;;;;;;4996043;28;20046;-66
2022/04/01 06:27:03;;;;;;;1.73;1.63;;;2.10;96.30;;;;;;4994520;28;20026;-67
2022/04/01 06:29:35;;;;;;;3.92;1.48;;;;;;;;;;4987781;28;20046;-67
2022/04/01 06:32:06;;;;;;;1.80;1.70;;;;;;;;;;4992404;28;20427;-69
2022/04/01 06:34:35;;;;;;;1.92;1.75;;;;;;;;;;4995821;28;20033;-70
2022/04/01 06:37:03;;;;;;;1.48;1.38;;;;;;;;;;4994635;28;20030;-69
2022/04/01 06:39:29;;;;;;;4.38;1.35;;;;;;;;;;4996871;28;20654;-70
2022/04/01 06:41:57;;;;;;;7.93;2.20;;;;;;;;;;4995449;28;20026;-71
2022/04/01 06:44:23;;;;;;;1.88;1.63;;;;;;;;;;4994714;28;20080;-69
2022/04/01 06:46:50;;;;;;;3.20;1.55;;;;;;;;;;4995543;28;20434;-65
2022/04/01 06:49:16;;;;;;;1.10;0.85;;;;;;;;;;4994646;28;20054;-66
2022/04/01 06:51:43;;;;;;;2.45;2.17;;;;;;;;;;4995210;28;20037;-65
2022/04/01 06:54:09;;;;;;;3.20;1.48;;;;;;;;;;4993943;28;20407;-65
2022/04/01 06:56:35;;;;;;;3.40;1.70;;;;;;;;;;4995702;28;20034;-65
2022/04/01 06:59:01;;;;;;;0.98;0.88;;;;;;;;;;4993138;28;20666;-66
2022/04/01 07:01:28;;;;;;;8.30;3.92;;;;;;;;;;4993615;28;20026;-66
2022/04/01 07:03:54;;;;;;;9.27;3.63;;;;;;;;;;4995593;28;20034;-66
2022/04/01 07:06:20;;;;;;;7.82;3.22;;;;;;;;;;4995425;28;20042;-64
2022/04/01 07:08:49;;;;;;;6.40;2.78;;;;;;;;;;4995078;28;20514;-66
2022/04/01 07:11:15;;;;;;;2.28;1.02;;;;;;;;;;4976521;28;20030;-66
2022/04/01 07:13:42;;;;;;;4.78;1.63;;;;;;;;;;4995994;28;20060;-66
2022/04/01 07:16:10;;;;;;;4.38;2.22;;;;;;;;;;4995360;28;20368;-66
2022/04/01 07:18:37;;;;;;;10.60;2.88;;;;;;;;;;4996031;28;20034;-66
2022/04/01 07:21:03;;;;;;;1.83;1.73;;;;;;;;;;4995027;28;20094;-66
2022/04/01 07:23:29;;;;;;;2.05;1.73;;;;;;;;;;4994253;28;20030;-64
2022/04/01 07:25:55;;;;;;;2.72;1.42;;;;;;;;;;4994952;28;20042;-66
2022/04/01 07:28:21;;;;;;;10.02;1.90;;;;;;;;;;4994514;28;20181;-69
2022/04/01 07:30:50;;;;;;;2.83;2.08;;;;;;;;;;4996298;28;20061;-67
2022/04/01 07:33:16;;;;;;;9.20;2.17;;;;;;;;;;4997514;28;20074;-65
2022/04/01 07:35:45;;;;;;;1.65;1.20;;;;;;;;;;4997036;28;20410;-68
2022/04/01 07:38:11;;;;;;;2.25;1.38;;;;;;;;;;4998570;28;20066;-69
2022/04/01 07:40:37;;;;;;;3.40;1.75;;;;;;;;;;4998168;28;20514;-70
2022/04/01 07:43:03;;;;;;;1.13;1.02;;;;;;;;;;4997259;28;20126;-69
2022/04/01 07:45:33;;;;;;;1.52;1.42;;;;;;;;;;4978243;28;20466;-68
2022/04/01 07:47:59;;;;;;;1.00;0.90;;;;;;;;;;4997613;28;20570;-69
2022/04/01 07:50:25;;;;;;;1.10;1.00;;;;;;;;;;4976284;28;20042;-65
2022/04/01 07:52:51;;;;;;;1.90;1.80;;;;;;;;;;4996234;28;20056;-66
2022/04/01 07:55:17;;;;;;;1.73;0.95;;;;;;;;;;4997141;28;20062;-65
2022/04/01 07:57:44;;;;;;;1.43;1.03;;;;;;;;;;4997605;28;20041;-66
2022/04/01 08:00:11;;;;;;;1.17;1.08;;;;;;;;;;4995042;28;20381;-67
2022/04/01 08:02:37;;;;;;;5.22;0.85;;;;;;;;;;4995067;28;20037;-65
2022/04/01 08:05:03;;;;;;;1.50;1.20;;;;;;;;;;4994467;28;20043;-65
2022/04/01 08:07:29;;;;;;;0.65;0.65;;;;;;;;;;4996855;28;20048;-66
2022/04/01 08:09:57;;;;;;;0.57;0.55;;;;;;;;;;4997317;28;20042;-65
2022/04/01 08:12:23;;;;;;;1.75;1.27;;;;;;;;;;4996652;28;20552;-65
2022/04/01 08:14:49;;;;;;;6.93;0.82;;;;;;;;;;4994508;28;20034;-65
2022/04/01 08:17:15;;;;;;;1.27;1.10;;;;;;;;;;4994708;28;20027;-65
2022/04/01 08:19:42;;;;;;;0.95;0.93;;;;;;;;;;4997015;28;20030;-66
2022/04/01 08:22:09;;;;;;;0.85;0.80;;;;;;;;;;4995965;28;20120;-67
2022/04/01 08:24:36;;;;;;;8.23;1.53;;;;;;;;;;4996992;28;20048;-67
2022/04/01 08:27:02;;;;;;;2.00;1.20;;;;;;;;;;4996932;28;20842;-65
2022/04/01 08:29:29;;;;;;;2.30;1.00;;;;;;;;;;4994426;28;20069;-66
2022/04/01 08:31:55;;;;;;;;;;;;;;;;;;4996218;28;20034;-67
2022/04/01 08:34:21;;;;;;;12.80;1.02;;;;;;;;;;4995876;28;26431;-66
2022/04/01 08:36:47;;;;;;;1.67;0.88;;;;;;;;;;4997300;28;20027;-66
2022/04/01 08:39:13;;;;;;;9.43;1.17;;;;;;;;;;4993647;28;20038;-65
2022/04/01 08:41:39;;;;;;;1.27;1.17;;;;;;;;;;4994985;28;20552;-66
2022/04/01 08:44:06;;;;;;;1.77;0.80;;;;;;;;;;4976458;28;20035;-70
2022/04/01 08:46:32;;;;;;;4.57;0.98;;;;;;;;;;4996242;28;20474;-70
2022/04/01 08:48:58;;;;;;;0.73;0.73;;;;;;;;;;4994578;28;20041;-68
2022/04/01 08:51:24;;;;;;;4.00;0.93;;;;;;;;;;4997202;28;20399;-68
2022/04/01 08:53:50;;;;;;;0.82;0.82;;;3.20;99.90;;;;;;4979707;28;20049;-69
2022/04/01 08:56:19;;;;;;;1.15;0.70;;;;;;;;;;4994922;28;20034;-70
2022/04/01 08:58:45;;;;;;;1.73;1.25;;;;;;;;;;4992722;28;20038;-66
2022/04/01 09:01:13;;;;;;;10.57;1.00;;;;;;;;;;4995953;28;20046;-67
2022/04/01 09:03:39;;;;;;;2.28;0.90;;;;;;;;;;4996299;28;20041;-67
2022/04/01 09:06:06;;;;;;;1.42;0.77;;;;;;;;;;4993297;28;20038;-66
2022/04/01 09:08:35;;;;;;;1.85;0.57;;;;;;;;;;4993306;28;20112;-67
2022/04/01 09:11:02;;;;;;;1.30;0.80;;;;;;;;;;4996042;28;20034;-65
2022/04/01 09:13:28;;;;;;;;;;;;;;;;;;4996849;28;20025;-67
2022/04/01 09:15:55;;;;;;;1.00;0.77;;;;;;;;;;4997216;28;20389;-66
2022/04/01 09:18:35;;;;;;;0.40;0.40;;;;;;;;;;4994179;28;20121;-68
2022/04/01 09:21:01;;;;;;;2.05;1.35;;;;;;;;;;4994906;28;20116;-67
2022/04/01 09:23:27;;;;;;;2.70;1.10;;;;;;;;;;4975986;28;20034;-66
2022/04/01 09:25:54;;;;;;;2.13;0.80;;;3.40;93.00;;;;;;4995389;28;20100;-68
2022/04/01 09:28:24;;;;;;;10.80;0.68;;;;;;;;;;4993647;28;20031;-66
2022/04/01 09:30:56;;;;;;;2.55;1.30;;;;;;;;;;4996278;28;20057;-67
2022/04/01 09:33:22;;;;;;;0.60;0.60;;;;;;;;;;4994239;28;20038;-67
2022/04/01 09:35:49;;;;;;;4.63;2.95;;;;;;;;;;4994720;28;20646;-67
2022/04/01 09:38:18;;;;;;;7.95;2.88;;;;;;;;;;4993117;28;20072;-67
2022/04/01 09:40:44;;;;;;;7.72;6.40;;;3.40;93.50;;;;;;4995335;28;20037;-69
2022/04/01 09:43:10;;;;;;;3.03;2.25;;;;;;;;;;4994845;28;20053;-67
2022/04/01 09:45:37;;;;;;;4.85;2.92;;;;;;;;;;4995004;28;20045;-66
2022/04/01 09:48:03;;;;;;;1.60;1.50;;;;;;;;;;4996336;28;20030;-70
2022/04/01 09:50:30;;;;;;;2.97;2.67;;;;;;;;;;4995296;28;20100;-69
2022/04/01 09:52:56;;;;;;;;;;;;;;;;;;4996712;28;20050;-67
2022/04/01 09:55:22;;;;;;;2.22;1.45;;;;;;;;;;4995499;28;19913;-69
2022/04/01 09:57:49;;;;;;;2.33;1.48;;;;;;;;;;4995254;28;20563;-70
2022/04/01 10:00:15;;;;;;;2.05;1.58;;;;;;;;;;4991976;28;20137;-69
2022/04/01 10:02:41;;;;;;;1.17;0.98;;;;;;;;;;4990920;28;20045;-70
2022/04/01 10:05:07;;;;;;;6.53;1.45;;;;;;;;;;4991323;28;20478;-69
2022/04/01 10:07:34;;;;;;;1.20;0.98;;;;;;;;;;4994339;28;20052;-68
2022/04/01 10:10:00;;;;;;;2.58;1.00;;;;;;;;;;4994411;28;20042;-69
2022/04/01 10:12:29;;;;;;;0.55;0.55;;;3.20;92.30;;;;;;4993433;28;20616;-70
2022/04/01 10:14:57;;;;;;;1.33;1.20;;;;;;;;;;4992099;28;20037;-70
2022/04/01 10:17:27;;;;;;;1.70;1.27;;;3.10;92.10;;;;;;4992830;28;20064;-70
2022/04/01 10:19:54;;;;;;;4.38;1.05;;;;;;;;;;4993004;28;20040;-70
2022/04/01 10:22:20;;;;;;;4.28;1.27;;;;;;;;;;4976109;28;20034;-69
2022/04/01 10:24:53;;;;;;;1.40;1.25;;;;;;;;;;4994546;28;20100;-69
2022/04/01 10:27:37;;;;;;;7.75;1.17;;;;;;;;;;4992514;28;20061;-69
2022/04/01 10:30:04;;;;;;;2.25;1.33;;;;;;;;;;4992629;28;20534;-71
2022/04/01 10:32:31;;;;;;;1.40;1.30;;;;;;;;;;4994976;28;20444;-66
2022/04/01 10:34:58;;;;;;;4.07;1.25;;;;;;;;;;4984467;28;20038;-65
2022/04/01 10:37:25;;;;;;;;;;;;;;;;;;4995776;28;20085;-65
2022/04/01 10:39:54;;;;;;;1.23;1.13;;;;;;;;;;4996403;28;19909;-66
2022/04/01 10:42:24;;;;;;;13.18;1.52;;;;;;;;;;4991946;28;20041;-65
2022/04/01 10:44:52;;;;;;;2.15;0.95;;;;;;;;;;4991492;28;20088;-66
2022/04/01 10:47:20;;;;;;;1.20;1.10;;;;;;;;;;4993977;28;20030;-64
2022/04/01 10:52:31;;;;;;;1.15;0.93;;;;;;;;;;4992401;28;20049;-66
2022/04/01 10:55:03;;;;;;;0.88;0.75;;;;;;;;;;4996073;28;20084;-66
2022/04/01 10:57:30;;;;;;;1.08;1.02;;;;;;;;;;4994667;28;20019;-72
2022/04/01 11:00:14;;;;;;;1.83;1.20;;;;;;;;;;4993085;28;20035;-70
2022/04/01 11:02:40;;;;;;;1.42;1.08;;;;;;;;;;4992576;28;20507;-70
2022/04/01 11:05:26;;;;;;;0.80;0.80;;;;;;;;;;4981157;28;20031;-71
2022/04/01 11:08:28;;;;;;;1.00;0.90;;;;;;;;;;4996345;28;20029;-71
2022/04/01 11:11:06;;;;;;;1.13;1.02;;;;;;;;;;4923042;29;20043;-67
2022/04/01 11:13:32;;;;;;;1.00;0.70;;;;;;;;;;4921461;29;20044;-71
2022/04/01 11:16:14;;;;;;;4.30;3.13;;;;;;;;;;4923955;29;20409;-70
2022/04/01 11:18:59;;;;;;;2.13;1.77;;;;;;;;;;4923431;29;20040;-70
2022/04/01 11:21:31;;;;;;;0.90;0.90;;;;;;;;;;4924534;29;20280;-71
2022/04/01 11:24:21;;;;;;;1.75;1.13;;;;;;;;;;4923128;29;20118;-71
2022/04/01 11:26:47;;;;;;;3.05;1.40;;;3.70;97.30;;;;;;4924226;29;20027;-70
2022/04/01 11:29:19;;;;;;;1.48;1.17;;;3.70;89.70;;;;;;4922302;29;20054;-70
2022/04/01 11:31:45;;;;;;;2.78;2.08;;;;;;;;;;4921842;29;20048;-71
2022/04/01 11:34:11;;;;;;;1.27;0.90;;;;;;;;;;4922482;29;20051;-71
2022/04/01 11:36:37;;;;;;;1.02;0.98;;;3.40;93.70;;;;;;4924273;29;20210;-71
2022/04/01 11:39:04;;;;;;;4.63;1.90;;;;;;;;;;4924088;29;20123;-70
2022/04/01 11:41:30;;;;;;;2.22;1.05;;;;;;;;;;4922866;29;20051;-67
2022/04/01 11:43:57;;;;;;;4.47;1.02;;;;;;;;;;4927401;28;20044;-68
2022/04/01 11:46:23;;;;;;;0.98;0.77;;;;;;;;;;4996589;28;20057;-68
2022/04/01 11:48:50;;;;;;;0.80;0.80;;;;;;;;;;4997203;28;20030;-67
2022/04/01 11:51:16;;;;;;;;;;;;;;;;;;4998390;28;20042;-68
2022/04/01 11:53:45;;;;;;;0.60;0.60;;;;;;;;;;4997798;28;20467;-67
2022/04/01 11:56:12;;;;;;;1.17;0.93;;;;;;;;;;4997594;28;20041;-67
2022/04/01 11:58:55;;;;;;;1.13;1.10;;;;;;;;;;4997651;28;20026;-68
2022/04/01 12:01:22;;;;;;;0.90;0.90;;;;;;;;;;4998692;28;20173;-66
2022/04/01 12:03:48;;;;;;;1.63;1.02;;;;;;;;;;4996598;28;20072;-67
2022/04/01 12:09:05;;;;;;;0.63;0.63;;;;;;;;;;4991575;28;20627;-72
2022/04/01 12:11:46;;;;;;;0.95;0.50;;;;;;;;;;4993783;28;20122;-70
2022/04/01 12:14:12;;;;;;;1.83;0.85;;;;;;;;;;4996126;28;20038;-70
2022/04/01 12:16:44;;;;;;;1.02;0.98;;;3.40;92.90;;;;;;4997662;28;20054;-70
2022/04/01 12:19:20;;;;;;;1.02;0.80;;;;;;;;;;4995978;28;20265;-70
2022/04/01 12:22:05;;;;;;;0.82;0.82;;;;;;;;;;4997519;28;20022;-70
2022/04/01 12:24:32;;;;;;;1.33;1.23;;;;;;;;;;4996089;28;20042;-70
2022/04/01 12:26:59;;;;;;;2.10;0.70;;;;;;;;;;4993923;28;20030;-70
2022/04/01 12:29:26;;;;;;;1.57;1.13;;;;;;;;;;4995135;28;20042;-69
2022/04/01 12:32:03;;;;;;;1.17;1.08;;;;;;;;;;4996404;28;20113;-69
2022/04/01 12:34:30;;;;;;;0.85;0.85;;;;;;;;;;4995822;28;20037;-69
2022/04/01 12:37:00;;;;;;;1.38;1.08;;;;;;;;;;4997350;28;20418;-70
2022/04/01 12:39:26;;;;;;;1.10;1.00;;;;;;;;;;5000233;28;20022;-69
2022/04/01 12:41:53;;;;;;;7.85;3.22;;;;;;;;;;4994296;28;20398;-70
2022/04/01 12:44:24;;;;;;;8.13;2.85;;;;;;;;;;4994529;28;20030;-70
2022/04/01 12:46:50;;;;;;;7.63;3.28;;;;;;;;;;4996418;28;20093;-71
2022/04/01 12:49:25;;;;;;;5.13;3.27;;;3.90;92.40;;;;;;4993659;28;20026;-69
2022/04/01 12:51:59;;;;;;;8.55;3.78;;;;;;;;;;4997767;28;20846;-67
2022/04/01 12:54:31;;;;;;;5.13;1.80;;;4.00;99.90;;;;;;4995705;28;20060;-69
2022/04/01 12:56:58;;;;;;;1.85;1.42;;;;;;;;;;4995711;28;20034;-68
2022/04/01 12:59:24;;;;;;;3.80;1.42;;;;;;;;;;4993026;28;20023;-68
2022/04/01 13:02:01;;;;;;;2.47;1.70;;;;;;;;;;4995684;28;20050;-68
2022/04/01 13:04:27;;;;;;;2.05;1.15;;;;;;;;;;4995140;28;20077;-68
2022/04/01 13:07:07;;;;;;;2.35;1.80;;;;;;;;;;4978575;28;20149;-69
2022/04/01 13:09:42;;;;;;;2.17;1.77;;;;;;;;;;4993203;28;20121;-68
2022/04/01 13:12:09;;;;;;;0.82;0.77;;;;;;;;;;4991542;28;20033;-68
2022/04/01 13:14:35;;;;;;;3.27;2.13;;;;;;;;;;4993167;28;20490;-68
2022/04/01 13:17:10;;;;;;;1.13;1.02;;;4.20;92.20;;;;;;4995775;28;20296;-70
2022/04/01 13:19:38;;;;;;;3.78;0.82;;;;;;;;;;4993689;28;20065;-71
2022/04/01 13:22:06;;;;;;;1.20;1.10;;;;;;;;;;4995000;28;20025;-73
2022/04/01 13:24:36;;;;;;;1.30;1.20;;;;;;;;;;4992983;28;20033;-68
2022/04/01 13:27:03;;;;;;;2.05;1.38;;;;;;;;;;4991389;28;20053;-69
2022/04/01 13:29:29;;;;;;;1.40;1.30;;;;;;;;;;4990623;28;20467;-69
2022/04/01 13:31:55;;;;;;;2.85;1.55;;;;;;;;;;4993210;28;20034;-70
2022/04/01 13:34:21;;;;;;;1.20;1.10;;;;;;;;;;4994074;28;20215;-71
2022/04/01 13:36:50;;;;;;;0.98;0.85;;;;;;;;;;4996507;28;20403;-71
2022/04/01 13:39:17;;;;;;;11.90;0.88;;;;;;;;;;4991377;28;20041;-70
2022/04/01 13:41:43;;;;;;;1.23;0.90;;;;;;;;;;4991877;28;20030;-69
2022/04/01 13:44:10;;;;;;;1.73;0.93;;;;;;;;;;4993907;28;20033;-70
2022/04/01 13:46:36;;;;;;;1.88;1.30;;;;;;;;;;4995750;28;20084;-70
2022/04/01 13:49:03;;;;;;;5.18;1.05;;;;;;;;;;4994417;28;20046;-69
2022/04/01 13:51:30;;;;;;;2.85;1.40;;;;;;;;;;4994280;28;20036;-69
2022/04/01 13:53:56;;;;;;;0.60;0.60;;;;;;;;;;4990741;28;20137;-69
2022/04/01 13:56:22;;;;;;;2.50;1.40;;;;;;;;;;4992558;28;20681;-71
2022/04/01 13:58:48;;;;;;;1.00;0.73;;;;;;;;;;4996663;28;20026;-70
2022/04/01 14:01:14;;;;;;;2.22;1.40;;;;;;;;;;4993896;28;20034;-70
2022/04/01 14:03:41;;;;;;;6.47;1.23;;;;;;;;;;4995035;28;20774;-69
2022/04/01 14:06:07;;;;;;;5.18;1.75;;;;;;;;;;4978744;28;20038;-69
2022/04/01 14:08:37;;;;;;;1.27;1.17;;;;;;;;;;4993672;28;20023;-71
2022/04/01 14:11:03;;;;;;;0.80;0.80;;;;;;;;;;4994488;28;20122;-71
2022/04/01 14:13:30;;;;;;;1.03;0.93;;;;;;;;;;4994861;28;20105;-71
2022/04/01 14:15:56;;;;;;;1.95;0.95;;;;;;;;;;4995168;28;20029;-68
2022/04/01 14:18:22;;;;;;;2.67;1.45;;;;;;;;;;4991320;28;20034;-68
2022/04/01 14:20:49;;;;;;;2.90;1.48;;;;;;;;;;4991571;28;20022;-67
2022/04/01 14:23:15;;;;;;;1.25;1.15;;;;;;;;;;4990661;28;20523;-68
2022/04/01 14:25:44;;;;;;;2.13;1.23;;;;;;;;;;4994596;28;20030;-68
2022/04/01 14:28:11;;;;;;;1.10;0.82;;;;;;;;;;4994805;28;20045;-68
2022/04/01 14:30:37;;;;;;;0.50;0.50;;;;;;;;;;4994354;28;20037;-68
2022/04/01 14:33:03;;;;;;;2.72;1.02;;;;;;;;;;4991549;28;20526;-68
2022/04/01 14:35:30;;;;;;;0.90;0.90;;;;;;;;;;4993101;28;20025;-68
2022/04/01 14:37:57;;;;;;;0.70;0.65;;;;;;;;;;4994961;28;20085;-68
2022/04/01 14:40:23;;;;;;;1.80;1.15;;;4.70;93.20;;;;;;4993097;28;20041;-70
2022/04/01 14:42:49;;;;;;;1.20;1.10;;;;;;;;;;4996273;28;20030;-68
2022/04/01 14:45:16;;;;;;;3.33;1.00;;;;;;;;;;4990902;28;20022;-68
2022/04/01 14:47:42;;;;;;;1.38;1.27;;;;;;;;;;4990799;28;20041;-70
2022/04/01 14:50:10;;;;;;;0.80;0.80;;;;;;;;;;4990355;28;20034;-70